Estación Meteorológica Peña el Pijo (Robertgarden) [ 03/06/21 15:28:51 CET ]

Fecha Hora Presion(HPa) Temp (°C) Humedad % Rocio (°C) Viento ( m/s) Direccion Lluvia 1Hora(mm) Lluvia 24H(mm) LLuvia Total(mm)
2021-Feb-20 01:09:24 1008.300 2.4 75 -1.6 - N     89.61
2021-Feb-20 02:09:54 1007.900 1.6 78 -1.9 - N     89.61
2021-Feb-20 03:10:05 1007.400 1.3 80 -1.8 - N     89.61
2021-Feb-20 04:10:02 1006.800 1.3 80 -1.8 - N     89.61
2021-Feb-20 05:10:18 1006.500 0.9 80 -2.2 - N     89.61
2021-Feb-20 06:12:04 1006.800 0.9 79 -2.4 - N     89.61
2021-Feb-20 07:09:55 1006.900 0.8 77 -2.8 - N     89.61
2021-Feb-20 08:09:28 1006.600 1.0 76 -2.8 - N     89.61
2021-Feb-20 09:09:25 1006.600 7.2 63 0.6 - N     89.61
2021-Feb-20 10:10:00 1006.900 17.8 35 2.0 - N     89.61
2021-Feb-20 11:09:18 1006.500 20.9 22 -1.8 - N     89.61
2021-Feb-20 12:09:47 1006.300 22.6 22 -0.3 - N     89.61
2021-Feb-20 13:09:53 1005.500 21.8 22 -1.0 - N     89.61
2021-Feb-20 14:09:42 1004.700 21.6 21 -1.8 - N     89.61
2021-Feb-20 15:09:28 1003.700 23.1 19 -1.9 - N     89.61
2021-Feb-20 16:10:11 1003.300 19.8 26 -0.5 - N     89.61
2021-Feb-20 17:09:20 1003.200 16.9 34 0.8 - N     89.61
2021-Feb-20 18:09:30 1003.200 14.6 42 1.8 - N     89.61
2021-Feb-20 19:09:17 1003.500 12.4 50 2.3 - N     89.61
2021-Feb-20 20:09:57 1003.700 10.3 66 4.2 - N     89.61
2021-Feb-20 21:09:38 1003.600 8.8 74 4.3 - N     89.61
2021-Feb-20 22:09:29 1003.400 8.1 78 4.5 - N     89.61
2021-Feb-20 23:09:03 1003.000 7.1 83 4.4 - N     89.61

Temperatura Máxima:23°    Temperatura Mínima:
Presión Máxima:1008.300 Hpa    Presión Mínima:1003.000 Hpa


Volver